createdAt,value
2018-04-04T00:11:59.106Z,97074.95
2018-04-04T00:32:33.733Z,97095.60
2018-04-04T00:53:07.805Z,97106.23
2018-04-04T01:13:40.920Z,97114.64
2018-04-04T01:34:15.384Z,97119.65
2018-04-04T01:54:51.620Z,97149.45
2018-04-04T02:15:24.601Z,97122.00
2018-04-04T02:35:59.861Z,97119.36
2018-04-04T02:56:32.984Z,97118.55
2018-04-04T03:17:07.491Z,97098.65
2018-04-04T03:37:41.381Z,97096.31
2018-04-04T03:58:16.644Z,97110.48
2018-04-04T04:18:53.410Z,97094.08
2018-04-04T04:39:27.189Z,97067.57
2018-04-04T05:00:01.233Z,97052.28
2018-04-04T05:20:38.657Z,97061.09
2018-04-04T05:41:17.922Z,97060.58
2018-04-04T06:01:54.114Z,97080.50
2018-04-04T06:22:30.626Z,97048.36
2018-04-04T06:43:05.586Z,97035.75
2018-04-04T07:03:39.086Z,97065.42
2018-04-04T07:24:10.902Z,97074.86
2018-04-04T07:44:46.501Z,97062.13
2018-04-04T08:05:21.444Z,97066.05
2018-04-04T08:25:56.733Z,97035.48
2018-04-04T08:46:35.061Z,97031.30
2018-04-04T09:07:11.871Z,97006.19
2018-04-04T09:27:45.298Z,97010.75
2018-04-04T09:48:20.912Z,96972.27
2018-04-04T10:08:54.956Z,96994.59
2018-04-04T10:29:34.184Z,97072.89
2018-04-04T10:50:11.655Z,97031.00
2018-04-04T11:10:45.660Z,96987.85
2018-04-04T11:31:21.102Z,97038.23
2018-04-04T11:51:54.043Z,97029.11
2018-04-04T12:12:27.164Z,97074.87
2018-04-04T12:33:02.753Z,97088.94
2018-04-04T12:53:35.861Z,97082.17
2018-04-04T13:14:09.910Z,97098.25
2018-04-04T13:34:45.196Z,97060.72
2018-04-04T13:55:21.377Z,97045.05
2018-04-04T14:15:56.644Z,97032.34
2018-04-04T14:36:32.876Z,97043.70
2018-04-04T14:57:17.017Z,97023.52
2018-04-04T15:17:50.448Z,97038.48
2018-04-04T15:38:26.927Z,97059.52
2018-04-04T15:59:01.280Z,97023.61
2018-04-04T16:19:37.184Z,96993.42
2018-04-04T16:40:12.456Z,96989.11
2018-04-04T17:00:48.651Z,96969.90
2018-04-04T17:21:27.915Z,96990.05
2018-04-04T18:00:08.852Z,97012.05
2018-04-04T18:20:45.050Z,97012.33
2018-04-04T18:41:21.558Z,97041.42
2018-04-04T19:01:54.674Z,97033.91
2018-04-04T19:22:31.831Z,97015.59
2018-04-04T19:43:07.977Z,97006.13
2018-04-04T20:03:45.093Z,97018.92
2018-04-04T20:24:22.522Z,97042.91
2018-04-04T20:44:56.982Z,97079.58
2018-04-04T21:05:33.222Z,97065.05
2018-04-04T21:26:07.443Z,97043.17
2018-04-04T21:46:47.289Z,97072.64
2018-04-04T22:07:24.709Z,97073.71
2018-04-04T22:27:59.981Z,97105.00
2018-04-04T23:00:24.452Z,97148.52
2018-04-04T23:20:57.404Z,97151.59
2018-04-04T23:41:33.596Z,97169.06
